createdAt,value
2023-01-17T00:00:01.146Z,67.46
2023-01-17T00:02:30.904Z,67.54
2023-01-17T00:05:16.281Z,67.59
2023-01-17T00:08:00.976Z,67.78
2023-01-17T00:10:28.571Z,67.44
2023-01-17T00:13:00.424Z,67.48
2023-01-17T00:15:28.320Z,67.88
2023-01-17T00:17:55.191Z,67.73
2023-01-17T00:20:42.836Z,68.03
2023-01-17T00:23:33.150Z,68.03
2023-01-17T00:26:05.354Z,67.83
2023-01-17T00:28:40.213Z,67.74
2023-01-17T00:31:08.826Z,67.72
2023-01-17T00:33:35.678Z,67.67
2023-01-17T00:36:03.053Z,67.74
2023-01-17T00:38:32.213Z,67.46
2023-01-17T00:41:02.372Z,67.41
2023-01-17T00:43:48.413Z,67.37
2023-01-17T00:46:33.697Z,67.46
2023-01-17T00:49:18.970Z,67.25
2023-01-17T00:52:03.755Z,67.38
2023-01-17T00:54:48.610Z,67.48
2023-01-17T00:57:33.338Z,67.08
2023-01-17T01:00:18.060Z,67.25
2023-01-17T01:03:03.362Z,67.75
2023-01-17T01:05:48.675Z,67.52
2023-01-17T01:08:42.623Z,67.59
2023-01-17T01:11:33.406Z,67.50
2023-01-17T01:14:19.161Z,67.03
2023-01-17T01:17:04.955Z,67.35
2023-01-17T01:19:50.040Z,66.93
2023-01-17T01:22:34.685Z,66.97
2023-01-17T01:25:19.890Z,66.49
2023-01-17T01:28:04.534Z,66.76
2023-01-17T01:30:49.322Z,66.88
2023-01-17T01:33:18.806Z,66.83
2023-01-17T01:35:47.615Z,66.86
2023-01-17T01:38:13.999Z,66.87
2023-01-17T01:40:48.261Z,66.39
2023-01-17T01:43:16.883Z,65.59
2023-01-17T01:45:53.053Z,66.52
2023-01-17T01:48:48.734Z,67.02
2023-01-17T01:51:21.292Z,67.68
2023-01-17T01:53:50.958Z,68.36
2023-01-17T01:56:19.944Z,68.70
2023-01-17T01:58:51.832Z,69.74
2023-01-17T02:01:18.605Z,70.49
2023-01-17T02:03:46.700Z,70.59
2023-01-17T02:06:28.729Z,69.92
2023-01-17T02:08:59.745Z,68.98
2023-01-17T02:11:27.063Z,69.13
2023-01-17T02:13:53.439Z,69.60
2023-01-17T02:16:46.048Z,69.00
2023-01-17T02:19:30.879Z,69.54
2023-01-17T02:22:27.179Z,68.36
2023-01-17T02:24:53.583Z,69.17
2023-01-17T02:27:27.239Z,69.96
2023-01-17T02:30:21.585Z,70.49
2023-01-17T02:33:15.291Z,71.12
2023-01-17T02:36:08.043Z,70.76
2023-01-17T02:38:54.890Z,70.67
2023-01-17T02:41:25.052Z,70.90
2023-01-17T02:43:52.401Z,70.97
2023-01-17T02:46:18.921Z,71.25
2023-01-17T02:48:46.804Z,71.16
2023-01-17T02:51:41.954Z,71.74
2023-01-17T02:54:23.735Z,71.75
2023-01-17T02:57:01.414Z,72.49
2023-01-17T02:59:34.163Z,72.50
2023-01-17T03:02:09.969Z,72.07
2023-01-17T03:04:40.492Z,71.87
2023-01-17T03:07:16.290Z,72.47
2023-01-17T03:09:45.867Z,72.03
2023-01-17T03:12:13.280Z,72.32
2023-01-17T03:14:39.776Z,71.52
2023-01-17T03:17:06.407Z,70.53
2023-01-17T03:19:32.871Z,71.17
2023-01-17T03:21:59.326Z,71.05
2023-01-17T03:24:25.691Z,70.30
2023-01-17T03:26:52.137Z,70.82
2023-01-17T03:29:18.586Z,69.84
2023-01-17T03:31:45.228Z,70.08
2023-01-17T03:34:11.644Z,69.61
2023-01-17T03:36:38.197Z,69.80
2023-01-17T03:39:04.670Z,69.78
2023-01-17T03:41:31.562Z,69.27
2023-01-17T03:43:57.980Z,69.00
2023-01-17T03:46:26.286Z,69.39
2023-01-17T03:48:55.416Z,68.79
2023-01-17T03:51:21.853Z,69.06
2023-01-17T03:53:48.345Z,68.46
2023-01-17T03:56:14.851Z,68.78
2023-01-17T03:58:41.469Z,69.09
2023-01-17T04:01:08.336Z,68.48
2023-01-17T04:03:34.823Z,68.33
2023-01-17T04:06:01.362Z,67.96
2023-01-17T04:08:28.188Z,68.17
2023-01-17T04:10:54.599Z,68.47
2023-01-17T04:13:20.963Z,67.87
2023-01-17T04:15:49.052Z,68.25
2023-01-17T04:18:18.098Z,68.30
2023-01-17T04:20:44.746Z,67.49
2023-01-17T04:23:11.417Z,67.70
2023-01-17T04:25:37.876Z,67.05
2023-01-17T04:28:04.423Z,67.75
2023-01-17T04:30:32.565Z,67.22
2023-01-17T04:32:59.204Z,67.27
2023-01-17T04:35:25.981Z,66.74
2023-01-17T04:37:52.881Z,66.91
2023-01-17T04:40:19.557Z,66.91
2023-01-17T04:42:46.483Z,66.51
2023-01-17T04:45:14.078Z,65.63
2023-01-17T04:47:40.582Z,65.44
2023-01-17T04:50:08.011Z,65.87
2023-01-17T04:52:34.424Z,65.84
2023-01-17T04:55:00.934Z,65.49
2023-01-17T04:57:27.421Z,65.81
2023-01-17T04:59:53.801Z,65.31
2023-01-17T05:02:20.362Z,64.90
2023-01-17T05:04:46.833Z,65.26
2023-01-17T05:07:13.284Z,65.36
2023-01-17T05:09:39.761Z,65.53
2023-01-17T05:12:06.276Z,65.19
2023-01-17T05:14:34.339Z,65.54
2023-01-17T05:17:03.061Z,65.68
2023-01-17T05:19:29.689Z,65.90
2023-01-17T05:21:56.151Z,65.65
2023-01-17T05:24:22.614Z,65.19
2023-01-17T05:26:54.659Z,65.74
2023-01-17T05:29:21.669Z,65.39
2023-01-17T05:31:48.266Z,65.55
2023-01-17T05:34:14.656Z,65.44
2023-01-17T05:36:41.257Z,65.54
2023-01-17T05:39:07.723Z,65.92
2023-01-17T05:41:34.117Z,66.08
2023-01-17T05:44:00.540Z,66.20
2023-01-17T05:46:27.003Z,65.63
2023-01-17T05:48:53.403Z,65.32
2023-01-17T05:51:19.802Z,64.94
2023-01-17T05:53:46.252Z,65.01
2023-01-17T05:56:12.715Z,64.87
2023-01-17T05:58:40.061Z,65.18
2023-01-17T06:01:06.579Z,64.93
2023-01-17T06:03:33.095Z,64.59
2023-01-17T06:05:59.572Z,64.95
2023-01-17T06:08:26.081Z,64.83
2023-01-17T06:10:52.578Z,64.64
2023-01-17T06:13:21.927Z,64.47
2023-01-17T06:15:48.842Z,64.87
2023-01-17T06:18:19.482Z,64.47
2023-01-17T06:20:46.049Z,64.51
2023-01-17T06:23:14.367Z,64.58
2023-01-17T06:25:46.583Z,64.63
2023-01-17T06:28:15.689Z,64.55
2023-01-17T06:30:43.777Z,64.30
2023-01-17T06:33:11.323Z,64.56
2023-01-17T06:35:40.140Z,65.03
2023-01-17T06:38:07.318Z,65.13
2023-01-17T06:40:33.788Z,64.75
2023-01-17T06:43:01.907Z,64.83
2023-01-17T06:45:32.457Z,64.87
2023-01-17T06:48:00.748Z,65.37
2023-01-17T06:50:27.566Z,65.57
2023-01-17T06:52:59.708Z,64.93
2023-01-17T06:55:31.033Z,64.98
2023-01-17T06:57:59.635Z,65.75
2023-01-17T07:00:27.545Z,65.54
2023-01-17T07:02:54.623Z,65.06
2023-01-17T07:05:21.655Z,65.33
2023-01-17T07:07:48.710Z,64.75
2023-01-17T07:10:16.041Z,64.90
2023-01-17T07:12:42.729Z,64.85
2023-01-17T07:15:10.100Z,64.94
2023-01-17T07:17:36.906Z,64.60
2023-01-17T07:20:03.856Z,64.82
2023-01-17T07:22:30.672Z,65.01
2023-01-17T07:24:58.861Z,65.39
2023-01-17T07:27:27.847Z,64.70
2023-01-17T07:29:54.834Z,65.34
2023-01-17T07:32:21.978Z,64.29
2023-01-17T07:34:48.648Z,64.72
2023-01-17T07:37:15.538Z,63.96
2023-01-17T07:39:42.399Z,64.16
2023-01-17T07:42:11.806Z,64.17
2023-01-17T07:44:41.385Z,64.19
2023-01-17T07:47:08.426Z,64.34
2023-01-17T07:49:35.017Z,63.68
2023-01-17T07:52:03.632Z,63.41
2023-01-17T07:54:30.205Z,63.31
2023-01-17T07:56:56.857Z,63.58
2023-01-17T07:59:23.473Z,62.87
2023-01-17T08:01:50.255Z,63.11
2023-01-17T08:04:16.973Z,62.63
2023-01-17T08:06:47.635Z,62.60
2023-01-17T08:09:14.474Z,61.90
2023-01-17T08:11:41.064Z,60.75
2023-01-17T08:14:07.804Z,59.82
2023-01-17T08:16:34.420Z,59.60
2023-01-17T08:19:01.046Z,59.38
2023-01-17T08:21:27.704Z,59.31
2023-01-17T08:23:54.365Z,59.38
2023-01-17T08:26:22.517Z,60.21
2023-01-17T08:29:02.671Z,59.73
2023-01-17T08:31:33.994Z,59.70
2023-01-17T08:34:01.674Z,60.00
2023-01-17T08:36:28.985Z,59.94
2023-01-17T08:38:55.833Z,58.84
2023-01-17T08:41:24.181Z,59.49
2023-01-17T08:43:52.000Z,60.17
2023-01-17T08:46:19.283Z,59.90
2023-01-17T08:48:46.336Z,60.08
2023-01-17T08:51:12.946Z,60.30
2023-01-17T08:53:40.704Z,59.34
2023-01-17T08:56:07.528Z,59.81
2023-01-17T08:58:35.861Z,60.15
2023-01-17T09:01:05.661Z,60.49
2023-01-17T09:03:34.115Z,59.81
2023-01-17T09:06:01.664Z,60.82
2023-01-17T09:08:28.222Z,60.78
2023-01-17T09:10:54.827Z,60.59
2023-01-17T09:13:24.245Z,60.54
2023-01-17T09:15:50.895Z,60.57
2023-01-17T09:18:17.531Z,60.67
2023-01-17T09:20:44.298Z,60.71
2023-01-17T09:23:11.027Z,60.33
2023-01-17T09:25:39.939Z,59.60
2023-01-17T09:28:06.556Z,59.59
2023-01-17T09:30:33.219Z,58.95
2023-01-17T09:32:59.822Z,58.37
2023-01-17T09:35:26.322Z,57.77
2023-01-17T09:37:53.105Z,54.79
2023-01-17T09:40:24.894Z,53.34
2023-01-17T09:42:58.122Z,52.10
2023-01-17T09:45:27.442Z,53.54
2023-01-17T09:47:54.936Z,53.75
2023-01-17T09:50:37.880Z,53.58
2023-01-17T09:53:07.504Z,55.11
2023-01-17T09:55:44.128Z,55.91
2023-01-17T09:58:19.318Z,55.70
2023-01-17T10:01:03.592Z,56.24
2023-01-17T10:03:44.183Z,57.01
2023-01-17T10:06:36.145Z,58.00
2023-01-17T10:09:35.147Z,58.50
2023-01-17T10:12:01.738Z,58.21
2023-01-17T10:14:55.839Z,57.95
2023-01-17T10:17:45.572Z,58.10
2023-01-17T10:20:46.094Z,57.97
2023-01-17T10:23:25.759Z,57.93
2023-01-17T10:25:56.381Z,58.11
2023-01-17T10:28:40.852Z,58.37
2023-01-17T10:31:12.925Z,58.33
2023-01-17T10:34:37.820Z,58.07
2023-01-17T10:37:17.930Z,58.27
2023-01-17T10:39:47.820Z,57.77
2023-01-17T10:42:25.803Z,58.59
2023-01-17T10:45:15.323Z,59.49
2023-01-17T10:47:46.831Z,58.11
2023-01-17T10:50:13.717Z,58.26
2023-01-17T10:52:45.301Z,57.19
2023-01-17T10:55:40.040Z,56.22
2023-01-17T10:58:11.757Z,56.77
2023-01-17T11:00:47.639Z,57.86
2023-01-17T11:03:17.149Z,58.18
2023-01-17T11:05:44.320Z,57.71
2023-01-17T11:08:13.534Z,57.97
2023-01-17T11:10:40.285Z,57.57
2023-01-17T11:13:48.548Z,58.40
2023-01-17T11:16:27.481Z,57.34
2023-01-17T11:19:17.562Z,55.79
2023-01-17T11:22:04.965Z,53.36
2023-01-17T11:24:40.022Z,50.84
2023-01-17T11:27:08.304Z,49.40
2023-01-17T11:29:39.027Z,48.41
2023-01-17T11:32:30.018Z,47.78
2023-01-17T11:35:20.319Z,46.96
2023-01-17T11:38:13.168Z,45.18
2023-01-17T11:40:44.930Z,44.70
2023-01-17T11:43:11.945Z,44.41
2023-01-17T11:45:40.419Z,44.85
2023-01-17T11:48:16.271Z,44.82
2023-01-17T11:50:56.305Z,45.35
2023-01-17T11:53:33.429Z,45.83
2023-01-17T11:56:04.058Z,46.39
2023-01-17T11:58:33.796Z,47.53
2023-01-17T12:01:03.773Z,48.98
2023-01-17T12:03:53.471Z,49.59
2023-01-17T12:06:57.980Z,51.18
2023-01-17T12:09:31.424Z,50.84
2023-01-17T12:12:19.252Z,51.11
2023-01-17T12:15:27.027Z,51.05
2023-01-17T12:18:09.836Z,48.06
2023-01-17T12:21:05.670Z,48.23
2023-01-17T12:23:51.157Z,49.24
2023-01-17T12:26:28.879Z,47.94
2023-01-17T12:28:59.648Z,45.32
2023-01-17T12:31:33.786Z,46.94
2023-01-17T12:34:18.927Z,44.03
2023-01-17T12:37:06.317Z,45.18
2023-01-17T12:39:44.799Z,45.44
2023-01-17T12:42:25.995Z,47.23
2023-01-17T12:45:05.694Z,45.50
2023-01-17T12:47:37.836Z,46.92
2023-01-17T12:50:18.953Z,47.76
2023-01-17T12:53:08.445Z,48.14
2023-01-17T12:55:53.887Z,49.39
2023-01-17T12:58:24.796Z,50.76
2023-01-17T13:01:01.599Z,51.86
2023-01-17T13:03:48.644Z,50.88
2023-01-17T13:06:25.081Z,51.72
2023-01-17T13:08:54.917Z,52.52
2023-01-17T13:11:28.577Z,52.05
2023-01-17T13:13:57.619Z,50.97
2023-01-17T13:16:48.933Z,51.34
2023-01-17T13:19:42.554Z,51.31
2023-01-17T13:22:17.508Z,50.02
2023-01-17T13:24:56.253Z,50.15
2023-01-17T13:27:33.181Z,50.15
2023-01-17T13:30:22.068Z,48.85
2023-01-17T13:33:16.372Z,49.89
2023-01-17T13:36:25.512Z,48.45
2023-01-17T13:39:02.525Z,48.41
2023-01-17T13:41:54.885Z,48.19
2023-01-17T13:44:27.342Z,47.88
2023-01-17T13:46:53.689Z,47.26
2023-01-17T13:49:23.957Z,46.51
2023-01-17T13:52:26.680Z,48.33
2023-01-17T13:54:58.323Z,47.75
2023-01-17T13:57:29.846Z,47.87
2023-01-17T13:59:58.481Z,47.85
2023-01-17T14:02:38.780Z,48.79
2023-01-17T14:05:06.722Z,48.66
2023-01-17T14:08:09.831Z,49.65
2023-01-17T14:10:47.212Z,50.42
2023-01-17T14:13:37.111Z,51.22
2023-01-17T14:16:24.184Z,51.68
2023-01-17T14:18:50.815Z,49.82
2023-01-17T14:21:31.549Z,49.61
2023-01-17T14:24:10.404Z,49.62
2023-01-17T14:26:49.631Z,48.90
2023-01-17T14:29:50.023Z,48.54
2023-01-17T14:32:22.735Z,50.26
2023-01-17T14:34:52.091Z,50.11
2023-01-17T14:37:44.608Z,49.56
2023-01-17T14:40:18.656Z,50.62
2023-01-17T14:42:47.157Z,50.94
2023-01-17T14:45:21.994Z,51.37
2023-01-17T14:47:48.514Z,51.52
2023-01-17T14:50:17.655Z,50.16
2023-01-17T14:52:47.110Z,51.61
2023-01-17T14:55:20.724Z,51.73
2023-01-17T14:57:56.645Z,52.49
2023-01-17T15:00:34.961Z,51.72
2023-01-17T15:03:02.225Z,51.48
2023-01-17T15:05:30.222Z,51.02
2023-01-17T15:07:58.033Z,51.56
2023-01-17T15:10:30.802Z,51.68
2023-01-17T15:13:05.396Z,51.34
2023-01-17T15:15:41.884Z,52.39
2023-01-17T15:18:14.000Z,53.19
2023-01-17T15:20:50.053Z,53.71
2023-01-17T15:23:21.528Z,53.69
2023-01-17T15:25:50.253Z,53.74
2023-01-17T15:28:17.389Z,54.60
2023-01-17T15:31:06.422Z,55.67
2023-01-17T15:33:34.840Z,55.46
2023-01-17T15:36:07.124Z,56.47
2023-01-17T15:38:39.264Z,56.31
2023-01-17T15:41:10.988Z,56.96
2023-01-17T15:43:38.697Z,56.90
2023-01-17T15:46:05.634Z,57.33
2023-01-17T15:48:44.728Z,56.73
2023-01-17T15:51:12.848Z,56.85
2023-01-17T15:53:42.254Z,55.96
2023-01-17T15:56:31.923Z,56.29
2023-01-17T15:59:22.409Z,56.41
2023-01-17T16:01:56.637Z,56.18
2023-01-17T16:04:42.228Z,56.17
2023-01-17T16:07:20.441Z,56.04
2023-01-17T16:09:48.069Z,56.27
2023-01-17T16:12:15.265Z,56.66
2023-01-17T16:15:02.487Z,56.83
2023-01-17T16:17:30.274Z,57.37
2023-01-17T16:19:56.947Z,57.25
2023-01-17T16:22:23.374Z,57.47
2023-01-17T16:24:49.813Z,57.85
2023-01-17T16:27:16.233Z,58.41
2023-01-17T16:29:42.621Z,58.88
2023-01-17T16:32:09.081Z,59.67
2023-01-17T16:34:35.911Z,60.34
2023-01-17T16:37:04.128Z,60.81
2023-01-17T16:39:31.084Z,61.23
2023-01-17T16:42:03.642Z,60.95
2023-01-17T16:44:30.938Z,60.76
2023-01-17T16:47:01.211Z,60.21
2023-01-17T16:49:30.830Z,60.57
2023-01-17T16:51:57.260Z,60.50
2023-01-17T16:54:23.827Z,60.98
2023-01-17T16:56:50.369Z,60.80
2023-01-17T16:59:17.678Z,60.88
2023-01-17T17:01:45.795Z,61.50
2023-01-17T17:04:13.020Z,61.50
2023-01-17T17:06:41.682Z,61.68
2023-01-17T17:09:08.189Z,61.23
2023-01-17T17:11:34.581Z,61.00
2023-01-17T17:14:01.976Z,61.23
2023-01-17T17:16:33.838Z,61.26
2023-01-17T17:19:02.985Z,61.45
2023-01-17T17:21:30.567Z,61.31
2023-01-17T17:23:58.485Z,61.54
2023-01-17T17:26:26.868Z,61.33
2023-01-17T17:28:54.112Z,61.70
2023-01-17T17:31:20.808Z,61.70
2023-01-17T17:33:47.760Z,61.78
2023-01-17T17:36:14.622Z,61.60
2023-01-17T17:38:51.282Z,61.61
2023-01-17T17:41:20.582Z,61.09
2023-01-17T17:43:47.055Z,61.61
2023-01-17T17:46:15.478Z,61.57
2023-01-17T17:48:41.893Z,61.64
2023-01-17T17:51:23.965Z,61.83
2023-01-17T17:53:52.493Z,62.16
2023-01-17T17:56:20.837Z,62.11
2023-01-17T17:58:48.507Z,62.88
2023-01-17T18:01:15.982Z,62.54
2023-01-17T18:03:44.081Z,62.52
2023-01-17T18:06:12.275Z,62.63
2023-01-17T18:08:39.304Z,62.74
2023-01-17T18:11:11.097Z,62.80
2023-01-17T18:13:38.110Z,63.00
2023-01-17T18:16:10.809Z,63.24
2023-01-17T18:18:39.591Z,62.93
2023-01-17T18:21:14.085Z,62.99
2023-01-17T18:23:43.150Z,63.31
2023-01-17T18:26:18.460Z,62.60
2023-01-17T18:28:45.359Z,62.86
2023-01-17T18:31:11.923Z,63.21
2023-01-17T18:33:39.604Z,63.11
2023-01-17T18:36:08.956Z,64.09
2023-01-17T18:38:38.554Z,64.26
2023-01-17T18:41:10.878Z,65.04
2023-01-17T18:43:37.925Z,65.68
2023-01-17T18:46:04.938Z,65.42
2023-01-17T18:48:31.700Z,65.67
2023-01-17T18:51:07.003Z,65.86
2023-01-17T18:53:35.641Z,66.16
2023-01-17T18:56:05.935Z,65.50
2023-01-17T18:58:36.075Z,65.93
2023-01-17T19:01:25.461Z,65.35
2023-01-17T19:03:54.996Z,65.41
2023-01-17T19:06:31.095Z,65.63
2023-01-17T19:09:01.083Z,65.17
2023-01-17T19:11:28.376Z,65.84
2023-01-17T19:13:56.002Z,65.72
2023-01-17T19:16:30.974Z,65.60
2023-01-17T19:19:01.962Z,65.54
2023-01-17T19:21:29.206Z,65.70
2023-01-17T19:23:58.376Z,65.06
2023-01-17T19:26:27.147Z,65.20
2023-01-17T19:28:56.255Z,65.09
2023-01-17T19:31:26.143Z,64.64
2023-01-17T19:33:56.804Z,64.90
2023-01-17T19:36:26.329Z,65.38
2023-01-17T19:39:03.893Z,64.80
2023-01-17T19:41:31.248Z,64.73
2023-01-17T19:44:03.195Z,64.77
2023-01-17T19:46:30.591Z,65.72
2023-01-17T19:48:58.098Z,65.00
2023-01-17T19:51:26.649Z,66.55
2023-01-17T19:53:56.067Z,67.08
2023-01-17T19:56:24.414Z,67.24
2023-01-17T19:58:51.989Z,66.40
2023-01-17T20:01:21.825Z,66.34
2023-01-17T20:03:49.002Z,66.84
2023-01-17T20:06:18.901Z,65.87
2023-01-17T20:08:45.891Z,66.69
2023-01-17T20:11:21.242Z,66.77
2023-01-17T20:13:50.887Z,67.10
2023-01-17T20:16:18.084Z,67.17
2023-01-17T20:18:45.596Z,67.53
2023-01-17T20:21:14.934Z,68.14
2023-01-17T20:23:42.885Z,67.88
2023-01-17T20:26:14.695Z,67.69
2023-01-17T20:28:42.968Z,67.67
2023-01-17T20:31:15.417Z,67.70
2023-01-17T20:33:43.353Z,67.23
2023-01-17T20:36:12.650Z,67.55
2023-01-17T20:38:45.009Z,67.02
2023-01-17T20:41:17.531Z,66.68
2023-01-17T20:43:46.206Z,66.88
2023-01-17T20:46:13.643Z,67.62
2023-01-17T20:48:45.903Z,67.25
2023-01-17T20:51:13.475Z,67.88
2023-01-17T20:53:41.653Z,67.45
2023-01-17T20:56:08.787Z,67.50
2023-01-17T20:58:35.615Z,67.55
2023-01-17T21:01:02.127Z,67.92
2023-01-17T21:03:33.712Z,67.38
2023-01-17T21:06:09.071Z,68.03
2023-01-17T21:08:37.909Z,67.29
2023-01-17T21:11:05.523Z,67.75
2023-01-17T21:13:32.184Z,67.42
2023-01-17T21:15:58.756Z,68.36
2023-01-17T21:18:27.005Z,68.58
2023-01-17T21:20:53.862Z,67.87
2023-01-17T21:23:20.337Z,67.91
2023-01-17T21:25:54.786Z,68.29
2023-01-17T21:28:23.398Z,68.00
2023-01-17T21:30:49.864Z,67.82
2023-01-17T21:33:17.385Z,67.70
2023-01-17T21:35:44.037Z,68.09
2023-01-17T21:38:10.613Z,67.04
2023-01-17T21:40:37.035Z,66.96
2023-01-17T21:43:03.478Z,67.16
2023-01-17T21:45:32.465Z,67.87
2023-01-17T21:47:59.175Z,68.05
2023-01-17T21:50:33.317Z,68.33
2023-01-17T21:53:00.154Z,68.79
2023-01-17T21:55:45.332Z,69.23
2023-01-17T21:58:35.482Z,69.74
2023-01-17T22:01:15.704Z,69.35
2023-01-17T22:03:42.740Z,68.92
2023-01-17T22:06:10.282Z,68.87
2023-01-17T22:08:37.766Z,68.85
2023-01-17T22:11:10.874Z,68.57
2023-01-17T22:13:38.668Z,68.28
2023-01-17T22:16:07.512Z,68.55
2023-01-17T22:18:37.139Z,69.03
2023-01-17T22:21:24.649Z,68.84
2023-01-17T22:23:59.150Z,68.71
2023-01-17T22:26:28.746Z,68.90
2023-01-17T22:28:55.796Z,68.72
2023-01-17T22:31:24.774Z,68.71
2023-01-17T22:34:00.670Z,68.87
2023-01-17T22:36:27.896Z,68.28
2023-01-17T22:38:54.795Z,68.16
2023-01-17T22:41:31.097Z,68.59
2023-01-17T22:43:59.638Z,69.57
2023-01-17T22:46:28.963Z,69.20
2023-01-17T22:48:55.776Z,69.61
2023-01-17T22:51:25.964Z,69.37
2023-01-17T22:53:55.052Z,69.57
2023-01-17T22:56:26.927Z,69.90
2023-01-17T22:58:54.061Z,69.32
2023-01-17T23:01:24.482Z,69.44
2023-01-17T23:04:02.223Z,69.60
2023-01-17T23:06:33.078Z,69.98
2023-01-17T23:09:02.326Z,69.56
2023-01-17T23:11:42.696Z,69.94
2023-01-17T23:14:24.109Z,69.37
2023-01-17T23:17:20.874Z,69.58
2023-01-17T23:19:50.843Z,69.31
2023-01-17T23:22:18.461Z,68.92
2023-01-17T23:24:52.291Z,69.11
2023-01-17T23:27:45.087Z,69.06
2023-01-17T23:30:16.720Z,69.94
2023-01-17T23:32:46.339Z,69.24
2023-01-17T23:35:13.356Z,69.46
2023-01-17T23:37:58.591Z,69.30
2023-01-17T23:40:25.008Z,69.79
2023-01-17T23:43:10.044Z,69.54
2023-01-17T23:45:39.577Z,69.96
2023-01-17T23:48:09.826Z,70.17
2023-01-17T23:50:41.806Z,70.05
2023-01-17T23:53:09.272Z,70.97
2023-01-17T23:55:38.133Z,70.91
2023-01-17T23:58:06.363Z,70.40
